Terminal Aerodrome Forecast
Issued by NWS

Home | Current Version | Previous Version | Text Only | Print | Product List | Glossary On
Versions: 1 2 3 4 5 6 7 8 9 10 11 12 13
068
FTAK31 PAJN 261734
TAFAPG
TAF
PAPG 261734Z 2618/2718 VRB05KT P6SM BKN120
     FM270000 23003KT P6SM BKN100
     FM270800 VRB03KT P6SM SCT150
     FM271500 35005KT P6SM SCT150
      AMD LTD TO CLD VIS AND WIND 2706/2715=

USA.gov is the U.S. government's official web portal to all federal, state and local government web resources and services.